createdAt,value
2023-05-13T00:02:39.840Z,86.97
2023-05-13T00:05:26.098Z,86.37
2023-05-13T00:08:12.390Z,87.80
2023-05-13T00:14:11.613Z,87.82
2023-05-13T00:16:58.633Z,86.78
2023-05-13T00:19:46.037Z,86.02
2023-05-13T00:22:31.879Z,86.23
2023-05-13T00:25:35.792Z,85.78
2023-05-13T00:28:28.585Z,85.59
2023-05-13T00:31:21.674Z,86.30
2023-05-13T00:34:14.615Z,87.11
2023-05-13T00:37:10.267Z,87.01
2023-05-13T00:40:02.361Z,87.28
2023-05-13T00:42:55.656Z,88.55
2023-05-13T00:45:48.568Z,88.70
2023-05-13T00:48:41.261Z,88.13
2023-05-13T00:51:33.862Z,87.46
2023-05-13T00:57:44.184Z,88.95
2023-05-13T01:00:42.682Z,89.51
2023-05-13T01:03:39.301Z,90.35
2023-05-13T01:09:49.624Z,90.65
2023-05-13T01:16:02.918Z,87.92
2023-05-13T01:18:58.548Z,87.25
2023-05-13T01:21:56.301Z,86.94
2023-05-13T01:25:23.268Z,87.43
2023-05-13T01:28:15.540Z,86.91
2023-05-13T01:31:37.452Z,87.57
2023-05-13T01:34:30.796Z,93.00
2023-05-13T01:40:54.128Z,91.86
2023-05-13T01:44:03.864Z,91.07
2023-05-13T01:46:54.171Z,91.35
2023-05-13T01:53:08.642Z,89.21
2023-05-13T01:56:09.519Z,89.47
2023-05-13T01:59:02.472Z,89.88
2023-05-13T02:02:04.464Z,89.23
2023-05-13T02:04:57.587Z,89.33
2023-05-13T02:07:50.155Z,89.52
2023-05-13T02:10:42.390Z,89.13
2023-05-13T02:13:36.857Z,89.13
2023-05-13T02:16:29.600Z,89.67
2023-05-13T02:19:22.613Z,90.50
2023-05-13T02:22:16.173Z,89.20
2023-05-13T02:25:09.159Z,89.27
2023-05-13T02:28:02.516Z,88.99
2023-05-13T02:30:56.664Z,88.97
2023-05-13T02:33:49.444Z,88.52
2023-05-13T02:36:43.106Z,88.26
2023-05-13T02:39:36.970Z,88.83
2023-05-13T02:42:30.558Z,88.68
2023-05-13T02:45:23.384Z,88.93
2023-05-13T02:48:20.825Z,89.44
2023-05-13T02:51:13.524Z,89.38
2023-05-13T02:54:08.013Z,89.34
2023-05-13T02:57:00.496Z,88.49
2023-05-13T03:03:14.338Z,87.79
2023-05-13T03:06:08.862Z,89.47
2023-05-13T03:12:12.452Z,90.80
2023-05-13T03:15:06.699Z,90.23
2023-05-13T03:17:59.608Z,89.25
2023-05-13T03:20:52.567Z,88.53
2023-05-13T03:23:47.030Z,89.30
2023-05-13T03:26:40.243Z,88.99
2023-05-13T03:29:33.409Z,89.56
2023-05-13T03:32:30.360Z,88.37
2023-05-13T03:35:24.515Z,87.41
2023-05-13T03:38:17.563Z,87.27
2023-05-13T03:41:17.314Z,88.11
2023-05-13T03:44:13.015Z,87.94
2023-05-13T03:47:07.312Z,90.61
2023-05-13T03:50:00.435Z,90.71
2023-05-13T03:52:56.841Z,90.19
2023-05-13T03:55:49.805Z,89.86
2023-05-13T04:01:56.234Z,89.51
2023-05-13T04:04:48.470Z,88.99
2023-05-13T04:07:39.186Z,89.17
2023-05-13T04:10:31.414Z,88.33
2023-05-13T04:13:24.229Z,88.93
2023-05-13T04:16:17.238Z,89.37
2023-05-13T04:19:10.724Z,88.19
2023-05-13T04:22:03.751Z,88.72
2023-05-13T04:24:57.145Z,89.53
2023-05-13T04:27:49.700Z,89.74
2023-05-13T04:30:53.012Z,88.76
2023-05-13T04:33:46.045Z,88.14
2023-05-13T04:36:41.030Z,87.59
2023-05-13T04:39:35.507Z,87.18
2023-05-13T04:42:39.720Z,87.97
2023-05-13T04:45:32.572Z,86.21
2023-05-13T04:48:28.089Z,86.67
2023-05-13T04:51:23.218Z,87.45
2023-05-13T04:54:17.787Z,86.49
2023-05-13T04:57:11.269Z,86.24
2023-05-13T05:00:04.091Z,85.80
2023-05-13T05:02:58.802Z,86.03
2023-05-13T05:05:52.548Z,87.29
2023-05-13T05:08:45.640Z,86.65
2023-05-13T05:14:52.193Z,86.53
2023-05-13T05:20:56.858Z,83.15
2023-05-13T05:27:07.070Z,67.34
2023-05-13T05:33:19.464Z,58.74
2023-05-13T05:36:12.745Z,55.44
2023-05-13T05:39:03.875Z,51.42
2023-05-13T05:41:58.486Z,47.83
2023-05-13T05:44:51.513Z,46.50
2023-05-13T05:47:44.221Z,42.66
2023-05-13T05:50:38.849Z,43.52
2023-05-13T05:53:37.502Z,42.74
2023-05-13T05:56:31.366Z,41.60
2023-05-13T06:02:36.951Z,41.04
2023-05-13T06:08:44.140Z,38.78
2023-05-13T06:11:36.638Z,36.44
2023-05-13T06:17:42.032Z,32.94
2023-05-13T06:20:34.654Z,32.67
2023-05-13T06:23:27.695Z,32.05
2023-05-13T06:26:22.180Z,30.82
2023-05-13T06:29:14.662Z,31.78
2023-05-13T06:32:08.269Z,31.11
2023-05-13T06:38:13.104Z,29.06
2023-05-13T06:44:24.212Z,28.09
2023-05-13T06:47:21.766Z,27.43
2023-05-13T06:50:15.675Z,28.02
2023-05-13T06:53:11.141Z,26.56
2023-05-13T06:59:20.216Z,29.10
2023-05-13T07:02:13.830Z,31.03
2023-05-13T07:05:09.184Z,29.08
2023-05-13T07:08:06.543Z,29.87
2023-05-13T07:10:59.760Z,28.35
2023-05-13T07:13:52.678Z,28.53
2023-05-13T07:16:45.523Z,27.31
2023-05-13T07:19:39.776Z,26.37
2023-05-13T07:22:32.359Z,28.69
2023-05-13T07:29:11.339Z,30.77
2023-05-13T07:32:07.568Z,32.05
2023-05-13T07:35:01.928Z,33.14
2023-05-13T07:37:54.689Z,32.25
2023-05-13T07:40:47.655Z,29.82
2023-05-13T07:43:40.828Z,26.90
2023-05-13T07:46:33.819Z,30.26
2023-05-13T07:49:26.602Z,31.89
2023-05-13T07:52:20.564Z,28.36
2023-05-13T07:55:13.731Z,26.33
2023-05-13T08:01:21.394Z,29.73
2023-05-13T08:04:14.024Z,30.27
2023-05-13T08:07:07.050Z,27.23
2023-05-13T08:10:00.656Z,29.73
2023-05-13T08:12:57.534Z,28.39
2023-05-13T08:15:51.777Z,30.40
2023-05-13T08:18:44.900Z,30.25
2023-05-13T08:22:02.747Z,29.14
2023-05-13T08:24:55.644Z,28.77
2023-05-13T08:31:18.824Z,26.72
2023-05-13T08:37:24.017Z,29.57
2023-05-13T08:40:16.685Z,30.50
2023-05-13T08:43:08.187Z,32.89
2023-05-13T08:46:04.194Z,32.95
2023-05-13T08:48:57.847Z,29.39
2023-05-13T08:55:02.533Z,30.04
2023-05-13T09:01:00.788Z,28.36
2023-05-13T09:03:56.239Z,28.76
2023-05-13T09:10:02.462Z,28.79
2023-05-13T09:12:56.097Z,27.67
2023-05-13T09:15:48.783Z,29.37
2023-05-13T09:21:50.491Z,32.43
2023-05-13T09:24:54.605Z,30.31
2023-05-13T09:27:52.403Z,30.32
2023-05-13T09:30:46.682Z,30.71
2023-05-13T09:33:39.555Z,34.80
2023-05-13T09:36:32.904Z,32.40
2023-05-13T09:39:25.585Z,34.28
2023-05-13T09:42:20.423Z,34.46
2023-05-13T09:45:15.706Z,33.66
2023-05-13T09:51:03.448Z,33.80
2023-05-13T09:53:56.016Z,32.45
2023-05-13T09:56:49.237Z,32.92
2023-05-13T09:59:41.354Z,33.70
2023-05-13T10:02:35.400Z,33.04
2023-05-13T10:05:27.327Z,34.10
2023-05-13T10:08:25.874Z,32.34
2023-05-13T10:11:19.704Z,31.82
2023-05-13T10:14:12.870Z,34.69
2023-05-13T10:17:06.632Z,37.88
2023-05-13T10:20:01.642Z,36.90
2023-05-13T10:22:54.466Z,36.62
2023-05-13T10:25:48.148Z,35.51
2023-05-13T10:28:47.551Z,35.49
2023-05-13T10:31:34.275Z,35.52
2023-05-13T10:34:20.618Z,35.71
2023-05-13T10:40:34.009Z,36.08
2023-05-13T10:46:35.229Z,38.10
2023-05-13T10:52:42.641Z,37.37
2023-05-13T10:55:29.998Z,36.45
2023-05-13T10:58:16.662Z,41.54
2023-05-13T11:01:16.760Z,41.88
2023-05-13T11:04:04.134Z,41.61
2023-05-13T11:06:51.413Z,41.56
2023-05-13T11:09:39.011Z,37.77
2023-05-13T11:12:26.233Z,41.38
2023-05-13T11:18:30.788Z,37.22
2023-05-13T11:21:16.930Z,34.95
2023-05-13T11:24:05.384Z,36.82
2023-05-13T11:26:53.344Z,35.83
2023-05-13T11:32:56.658Z,40.28
2023-05-13T11:35:55.350Z,39.83
2023-05-13T11:38:47.716Z,35.49
2023-05-13T11:41:44.782Z,42.25
2023-05-13T11:44:47.347Z,37.30
2023-05-13T11:47:39.745Z,37.99
2023-05-13T11:53:53.738Z,35.19
2023-05-13T11:56:46.782Z,35.26
2023-05-13T11:59:47.929Z,35.74
2023-05-13T12:02:41.296Z,40.62
2023-05-13T12:05:33.782Z,38.92
2023-05-13T12:08:26.909Z,41.26
2023-05-13T12:11:21.270Z,34.81
2023-05-13T12:14:13.837Z,34.43
2023-05-13T12:17:06.873Z,36.32
2023-05-13T12:20:06.846Z,37.34
2023-05-13T12:26:21.568Z,35.82
2023-05-13T12:29:14.875Z,35.83
2023-05-13T12:32:08.479Z,35.40
2023-05-13T12:35:00.704Z,35.67
2023-05-13T12:38:00.584Z,33.62
2023-05-13T12:40:54.998Z,31.66
2023-05-13T12:43:49.073Z,32.41
2023-05-13T12:46:51.551Z,37.08
2023-05-13T12:49:54.081Z,36.58
2023-05-13T12:52:46.592Z,34.27
2023-05-13T12:55:39.734Z,33.71
2023-05-13T12:58:33.297Z,37.96
2023-05-13T13:01:26.733Z,32.91
2023-05-13T13:04:20.164Z,31.44
2023-05-13T13:07:14.429Z,32.10
2023-05-13T13:10:08.119Z,33.59
2023-05-13T13:13:01.331Z,33.91
2023-05-13T13:15:53.789Z,36.55
2023-05-13T13:18:48.176Z,39.28
2023-05-13T13:21:40.742Z,32.72
2023-05-13T13:27:46.068Z,31.48
2023-05-13T13:30:38.838Z,34.25
2023-05-13T13:33:31.587Z,33.92
2023-05-13T13:39:38.040Z,31.71
2023-05-13T13:42:43.286Z,31.40
2023-05-13T13:45:37.249Z,33.18
2023-05-13T13:48:29.565Z,33.08
2023-05-13T13:54:40.162Z,36.77
2023-05-13T14:00:48.986Z,35.21
2023-05-13T14:03:41.574Z,35.86
2023-05-13T14:06:34.507Z,35.91
2023-05-13T14:09:27.538Z,34.97
2023-05-13T14:12:22.081Z,37.50
2023-05-13T14:15:15.103Z,35.89
2023-05-13T14:18:08.303Z,37.77
2023-05-13T14:21:00.971Z,36.95
2023-05-13T14:27:10.119Z,40.05
2023-05-13T14:33:20.338Z,33.83
2023-05-13T14:36:16.027Z,35.13
2023-05-13T14:39:09.526Z,39.02
2023-05-13T14:42:01.943Z,33.78
2023-05-13T14:44:54.451Z,32.94
2023-05-13T14:50:59.858Z,32.96
2023-05-13T14:57:17.670Z,32.84
2023-05-13T15:03:19.475Z,33.88
2023-05-13T15:09:25.402Z,31.40
2023-05-13T15:15:32.025Z,30.25
2023-05-13T15:21:37.011Z,34.09
2023-05-13T15:24:30.923Z,30.61
2023-05-13T15:27:23.817Z,31.25
2023-05-13T15:30:16.767Z,34.15
2023-05-13T15:33:09.818Z,32.75
2023-05-13T15:36:02.861Z,33.40
2023-05-13T15:38:55.431Z,34.30
2023-05-13T15:41:49.096Z,35.60
2023-05-13T15:44:41.622Z,34.77
2023-05-13T15:47:34.616Z,32.94
2023-05-13T15:50:27.555Z,33.82
2023-05-13T15:53:20.699Z,31.33
2023-05-13T15:56:13.865Z,32.73
2023-05-13T15:59:08.371Z,32.05
2023-05-13T16:02:00.953Z,33.43
2023-05-13T16:05:05.129Z,34.69
2023-05-13T16:07:58.021Z,35.73
2023-05-13T16:14:13.195Z,35.61
2023-05-13T16:17:06.342Z,34.13
2023-05-13T16:19:59.595Z,36.45
2023-05-13T16:22:53.061Z,39.00
2023-05-13T16:25:46.595Z,34.85
2023-05-13T16:28:40.200Z,35.08
2023-05-13T16:31:31.717Z,35.83
2023-05-13T16:34:26.230Z,35.58
2023-05-13T16:37:18.929Z,38.87
2023-05-13T16:40:13.251Z,38.73
2023-05-13T16:43:05.606Z,35.07
2023-05-13T16:46:02.129Z,37.01
2023-05-13T16:48:57.839Z,35.10
2023-05-13T16:55:04.029Z,36.67
2023-05-13T16:57:56.590Z,39.91
2023-05-13T17:00:49.744Z,37.56
2023-05-13T17:03:42.632Z,37.66
2023-05-13T17:06:37.259Z,37.60
2023-05-13T17:09:30.971Z,39.35
2023-05-13T17:12:23.836Z,39.96
2023-05-13T17:15:17.086Z,39.20
2023-05-13T17:18:25.854Z,38.90
2023-05-13T17:21:16.448Z,38.34
2023-05-13T17:24:10.043Z,39.38
2023-05-13T17:27:04.341Z,39.66
2023-05-13T17:29:56.491Z,39.74
2023-05-13T17:32:49.089Z,41.79
2023-05-13T17:35:41.910Z,40.74
2023-05-13T17:38:34.610Z,40.79
2023-05-13T17:41:32.940Z,40.47
2023-05-13T17:44:25.690Z,40.37
2023-05-13T17:51:04.748Z,41.22
2023-05-13T17:53:58.012Z,41.01
2023-05-13T17:56:51.979Z,41.48
2023-05-13T17:59:44.512Z,38.63
2023-05-13T18:02:37.077Z,40.04
2023-05-13T18:05:29.920Z,38.92
2023-05-13T18:08:22.626Z,39.85
2023-05-13T18:11:15.847Z,41.10
2023-05-13T18:14:09.919Z,40.70
2023-05-13T18:17:02.785Z,41.06
2023-05-13T18:19:55.512Z,43.71
2023-05-13T18:22:47.588Z,43.04
2023-05-13T18:25:52.467Z,43.67
2023-05-13T18:28:48.819Z,42.00
2023-05-13T18:31:43.367Z,43.03
2023-05-13T18:34:37.214Z,42.08
2023-05-13T18:37:29.623Z,44.65
2023-05-13T18:40:23.028Z,41.36
2023-05-13T18:43:15.972Z,42.38
2023-05-13T18:49:22.901Z,43.27
2023-05-13T18:52:15.639Z,48.13
2023-05-13T18:55:09.382Z,56.84
2023-05-13T18:58:01.843Z,54.30
2023-05-13T19:00:54.732Z,52.13
2023-05-13T19:03:47.984Z,52.67
2023-05-13T19:06:42.818Z,56.80
2023-05-13T19:09:35.965Z,57.73
2023-05-13T19:12:28.542Z,59.18
2023-05-13T19:15:22.667Z,63.38
2023-05-13T19:18:15.769Z,61.23
2023-05-13T19:21:08.610Z,59.96
2023-05-13T19:24:38.958Z,57.96
2023-05-13T19:27:32.829Z,60.12
2023-05-13T19:30:43.174Z,66.48
2023-05-13T19:33:32.877Z,67.12
2023-05-13T19:36:26.277Z,66.89
2023-05-13T19:39:21.378Z,66.69
2023-05-13T19:42:13.558Z,67.60
2023-05-13T19:45:08.282Z,72.31
2023-05-13T19:48:12.902Z,75.34
2023-05-13T19:51:05.843Z,75.64
2023-05-13T19:57:19.868Z,77.38
2023-05-13T20:00:15.044Z,77.06
2023-05-13T20:03:07.869Z,76.79
2023-05-13T20:06:01.631Z,76.27
2023-05-13T20:08:54.483Z,79.57
2023-05-13T20:11:46.790Z,79.96
2023-05-13T20:14:44.098Z,77.21
2023-05-13T20:17:38.339Z,76.83
2023-05-13T20:20:30.484Z,78.29
2023-05-13T20:26:35.628Z,78.46
2023-05-13T20:29:34.669Z,78.90
2023-05-13T20:32:27.671Z,79.46
2023-05-13T20:38:28.922Z,77.74
2023-05-13T20:41:22.952Z,76.76
2023-05-13T20:44:16.902Z,78.70
2023-05-13T20:47:10.187Z,78.28
2023-05-13T20:53:14.254Z,77.33
2023-05-13T20:59:33.399Z,76.26
2023-05-13T21:05:36.966Z,78.56
2023-05-13T21:08:29.907Z,79.52
2023-05-13T21:11:22.793Z,80.88
2023-05-13T21:14:15.648Z,82.36
2023-05-13T21:20:18.731Z,82.09
2023-05-13T21:23:13.855Z,80.28
2023-05-13T21:26:14.262Z,79.17
2023-05-13T21:29:06.744Z,79.26
2023-05-13T21:31:59.716Z,79.61
2023-05-13T21:38:14.127Z,81.33
2023-05-13T21:44:52.626Z,85.49
2023-05-13T21:48:03.584Z,85.82
2023-05-13T21:50:52.686Z,86.32
2023-05-13T21:57:08.872Z,83.00
2023-05-13T22:00:01.439Z,82.98
2023-05-13T22:02:54.106Z,82.70
2023-05-13T22:05:47.008Z,84.09
2023-05-13T22:08:39.884Z,83.50
2023-05-13T22:11:32.732Z,84.06
2023-05-13T22:14:27.067Z,83.49
2023-05-13T22:17:20.096Z,84.31
2023-05-13T22:20:37.882Z,86.11
2023-05-13T22:23:30.926Z,85.80
2023-05-13T22:29:37.366Z,83.91
2023-05-13T22:35:42.024Z,82.72
2023-05-13T22:38:34.783Z,83.15
2023-05-13T22:41:27.471Z,83.41
2023-05-13T22:44:19.997Z,84.27
2023-05-13T22:47:13.950Z,87.02
2023-05-13T22:50:08.278Z,86.18
2023-05-13T22:53:00.376Z,85.79
2023-05-13T22:55:52.836Z,85.29
2023-05-13T22:58:45.947Z,85.46
2023-05-13T23:01:38.725Z,85.67
2023-05-13T23:07:40.490Z,90.71
2023-05-13T23:10:32.898Z,91.36
2023-05-13T23:13:25.704Z,90.72
2023-05-13T23:16:19.813Z,90.77
2023-05-13T23:19:13.416Z,90.69
2023-05-13T23:22:06.171Z,90.80
2023-05-13T23:25:04.310Z,89.90
2023-05-13T23:27:56.757Z,88.54
2023-05-13T23:30:53.555Z,87.25
2023-05-13T23:33:45.728Z,86.21
2023-05-13T23:36:38.710Z,85.84
2023-05-13T23:39:32.160Z,86.13
2023-05-13T23:42:26.423Z,86.46
2023-05-13T23:48:40.154Z,90.37
2023-05-13T23:55:20.122Z,87.12
2023-05-13T23:58:27.809Z,87.56
